Patriarch — WBN3014 — position and weather

sailwx.info

Track history (hours):
 
Tides and Currents Weather Stations Pressure Air Temp Water Temp Dewpoint Dewpoint Depression Visibility Wind Speed Wind Dir Waves Ship Positions

Patriarch

Owner: CROWLEY PUERTO RICO SERVICES INC, Seattle, WA. More information available from US FCC via Universal Licensing System and Coast Guard Vessel Documentation Center.

Last reported at 2015-Jul-01 18:00 UTC. Time now 2015-Jul-02 12:38 UTC.
Position N 26°36' W 070°18'.

Length 46 m; draft 5 m.

Type: Towing. MMSI: 366766940.

Wind from 170 at 18 knots

Air temperature 26.1 ° C
Water temperature 30.6 ° C

Date/timePositionNaut miles runAvg speedWind from/ knotsBaromVisibWave heightAir tempDewpointWater temp
2015-Jul-01 18:00N 26°36' W 070°18'420 8.7 170 / 18 26.1 30.6
2015-Jun-29 18:00N 32°54' W 073°48'347 8.2 230 / 201015.0 2.2 0.528.3
2015-Jun-27 23:34N 38°37' W 074°53'8 8.2
2015-Jun-27 22:34N 38°43' W 074°59'7 7.2
2015-Jun-27 21:34N 38°50' W 075°04'56 7.9
2015-Jun-27 14:30N 39°41' W 075°31'8 8.4
2015-Jun-27 13:33N 39°48' W 075°26'7 7.4
2015-Jun-27 12:34N 39°51' W 075°17'7 7.2
2015-Jun-27 11:34N 39°54' W 075°08'5 4.4
2015-Jun-27 10:31N 39°58' W 075°06'0 0.2
2015-Jun-27 09:28N 39°58' W 075°07'0 0.0
2015-Jun-27 08:31N 39°58' W 075°07'1 1.1
2015-Jun-27 07:31N 39°59' W 075°05'0 0.0
2015-Jun-27 06:31N 39°59' W 075°05'0 0.0
2015-Jun-27 05:31N 39°59' W 075°05'0 0.0
2015-Jun-27 04:31N 39°59' W 075°05'0 0.0
2015-Jun-27 03:31N 39°59' W 075°05'0 0.0
2015-Jun-27 02:31N 39°59' W 075°05'0 0.0
2015-Jun-27 01:31N 39°59' W 075°05'0 0.0
2015-Jun-27 00:31N 39°59' W 075°05'0 0.0
2015-Jun-26 23:31N 39°59' W 075°05'0 0.0
2015-Jun-26 22:31N 39°59' W 075°05'0 0.0
2015-Jun-26 21:28N 39°59' W 075°05'0 0.0
2015-Jun-26 20:31N 39°59' W 075°05'0 0.0
2015-Jun-26 19:31N 39°59' W 075°05'0 0.0
2015-Jun-26 18:31N 39°59' W 075°05'0 0.0
2015-Jun-26 17:28N 39°59' W 075°05'0 0.0
2015-Jun-26 16:31N 39°59' W 075°05'0 0.0
2015-Jun-26 15:33N 39°59' W 075°05'0 0.0
2015-Jun-26 14:34N 39°59' W 075°05'0 0.0
2015-Jun-26 13:34N 39°59' W 075°05'0 0.0
2015-Jun-26 12:33N 39°59' W 075°05'0 0.0
2015-Jun-26 11:33N 39°59' W 075°05'1 1.1
2015-Jun-26 10:33N 39°58' W 075°07'0 0.1
2015-Jun-26 09:33N 39°58' W 075°07'6 5.9
2015-Jun-26 08:34N 39°53' W 075°10'8 8.1
2015-Jun-26 07:33N 39°51' W 075°20'8 7.7
2015-Jun-26 06:33N 39°46' W 075°28'48 6.8
2015-Jun-25 23:33N 39°01' W 075°09'9 9.3
2015-Jun-25 22:33N 38°52' W 075°04'9 8.6
2015-Jun-25 21:33N 38°45' W 074°58'1010.3
2015-Jun-25 20:33N 38°38' W 074°50'1010.5
2015-Jun-25 19:33N 38°29' W 074°42'8 8.1
2015-Jun-25 18:33N 38°22' W 074°38'  
Track history (hours):
 
Tides and Currents Weather Stations Pressure Air Temp Water Temp Dewpoint Dewpoint Depression Visibility Wind Speed Wind Dir Waves Ship Positions

Patriarch

Owner: CROWLEY PUERTO RICO SERVICES INC, Seattle, WA. More information available from US FCC via Universal Licensing System and Coast Guard Vessel Documentation Center.

Last reported at 2015-Jul-01 18:00 UTC. Time now 2015-Jul-02 12:38 UTC.
Position N 26°36' W 070°18'.

Length 46 m; draft 5 m.

Type: Towing. MMSI: 366766940.

Wind from 170 at 18 knots

Air temperature 26.1 ° C
Water temperature 30.6 ° C

Date/timePositionNaut miles runAvg speedWind from/ knotsBaromVisibWave heightAir tempDewpointWater temp
2015-Jul-01 18:00N 26°36' W 070°18'420 8.7 170 / 18 26.1 30.6
2015-Jun-29 18:00N 32°54' W 073°48'347 8.2 230 / 201015.0 2.2 0.528.3
2015-Jun-27 23:34N 38°37' W 074°53'8 8.2
2015-Jun-27 22:34N 38°43' W 074°59'7 7.2
2015-Jun-27 21:34N 38°50' W 075°04'56 7.9
2015-Jun-27 14:30N 39°41' W 075°31'8 8.4
2015-Jun-27 13:33N 39°48' W 075°26'7 7.4
2015-Jun-27 12:34N 39°51' W 075°17'7 7.2
2015-Jun-27 11:34N 39°54' W 075°08'5 4.4
2015-Jun-27 10:31N 39°58' W 075°06'0 0.2
2015-Jun-27 09:28N 39°58' W 075°07'0 0.0
2015-Jun-27 08:31N 39°58' W 075°07'1 1.1
2015-Jun-27 07:31N 39°59' W 075°05'0 0.0
2015-Jun-27 06:31N 39°59' W 075°05'0 0.0
2015-Jun-27 05:31N 39°59' W 075°05'0 0.0
2015-Jun-27 04:31N 39°59' W 075°05'0 0.0
2015-Jun-27 03:31N 39°59' W 075°05'0 0.0
2015-Jun-27 02:31N 39°59' W 075°05'0 0.0
2015-Jun-27 01:31N 39°59' W 075°05'0 0.0
2015-Jun-27 00:31N 39°59' W 075°05'0 0.0
2015-Jun-26 23:31N 39°59' W 075°05'0 0.0
2015-Jun-26 22:31N 39°59' W 075°05'0 0.0
2015-Jun-26 21:28N 39°59' W 075°05'0 0.0
2015-Jun-26 20:31N 39°59' W 075°05'0 0.0
2015-Jun-26 19:31N 39°59' W 075°05'0 0.0
2015-Jun-26 18:31N 39°59' W 075°05'0 0.0
2015-Jun-26 17:28N 39°59' W 075°05'0 0.0
2015-Jun-26 16:31N 39°59' W 075°05'0 0.0
2015-Jun-26 15:33N 39°59' W 075°05'0 0.0
2015-Jun-26 14:34N 39°59' W 075°05'0 0.0
2015-Jun-26 13:34N 39°59' W 075°05'0 0.0
2015-Jun-26 12:33N 39°59' W 075°05'0 0.0
2015-Jun-26 11:33N 39°59' W 075°05'1 1.1
2015-Jun-26 10:33N 39°58' W 075°07'0 0.1
2015-Jun-26 09:33N 39°58' W 075°07'6 5.9
2015-Jun-26 08:34N 39°53' W 075°10'8 8.1
2015-Jun-26 07:33N 39°51' W 075°20'8 7.7
2015-Jun-26 06:33N 39°46' W 075°28'48 6.8
2015-Jun-25 23:33N 39°01' W 075°09'9 9.3
2015-Jun-25 22:33N 38°52' W 075°04'9 8.6
2015-Jun-25 21:33N 38°45' W 074°58'1010.3
2015-Jun-25 20:33N 38°38' W 074°50'1010.5
2015-Jun-25 19:33N 38°29' W 074°42'8 8.1
2015-Jun-25 18:33N 38°22' W 074°38'  

Dump ship's entire track history